sensor_id;sensor_type;location;lat;lon;timestamp;pressure;altitude;pressure_sealevel;temperature;humidity
74218;BME280;62579;47.288;18.646;2022-11-20T00:41:02;99613.00;;;1.61;88.00
74218;BME280;62579;47.288;18.646;2022-11-20T00:43:28;99605.81;;;1.58;88.06
74218;BME280;62579;47.288;18.646;2022-11-20T00:46:05;99611.34;;;1.63;88.01
74218;BME280;62579;47.288;18.646;2022-11-20T00:48:30;99609.50;;;1.51;88.52
74218;BME280;62579;47.288;18.646;2022-11-20T00:50:56;99610.06;;;1.46;88.28
74218;BME280;62579;47.288;18.646;2022-11-20T00:53:23;99606.06;;;1.51;88.17
74218;BME280;62579;47.288;18.646;2022-11-20T00:58:24;99619.19;;;1.49;88.00
74218;BME280;62579;47.288;18.646;2022-11-20T01:00:50;99616.38;;;1.52;88.00
74218;BME280;62579;47.288;18.646;2022-11-20T01:03:16;99622.25;;;1.69;87.37
74218;BME280;62579;47.288;18.646;2022-11-20T01:05:42;99616.44;;;1.61;87.85
74218;BME280;62579;47.288;18.646;2022-11-20T01:08:08;99627.06;;;1.74;86.78
74218;BME280;62579;47.288;18.646;2022-11-20T01:10:33;99620.87;;;1.64;87.33
74218;BME280;62579;47.288;18.646;2022-11-20T01:12:59;99629.44;;;1.81;86.88
74218;BME280;62579;47.288;18.646;2022-11-20T01:15:42;99625.38;;;1.67;86.67
74218;BME280;62579;47.288;18.646;2022-11-20T01:18:08;99632.84;;;1.72;86.61
74218;BME280;62579;47.288;18.646;2022-11-20T01:20:36;99628.22;;;1.64;87.49
74218;BME280;62579;47.288;18.646;2022-11-20T01:23:03;99630.13;;;1.63;86.67
74218;BME280;62579;47.288;18.646;2022-11-20T01:25:28;99632.34;;;1.56;87.01
74218;BME280;62579;47.288;18.646;2022-11-20T01:27:54;99638.88;;;1.55;87.68
74218;BME280;62579;47.288;18.646;2022-11-20T01:30:19;99634.81;;;1.72;86.50
74218;BME280;62579;47.288;18.646;2022-11-20T01:32:45;99618.31;;;1.52;86.78
74218;BME280;62579;47.288;18.646;2022-11-20T01:35:10;99631.38;;;1.71;86.68
74218;BME280;62579;47.288;18.646;2022-11-20T01:37:35;99630.03;;;1.76;85.79
74218;BME280;62579;47.288;18.646;2022-11-20T01:40:01;99620.63;;;1.71;86.20
74218;BME280;62579;47.288;18.646;2022-11-20T01:42:26;99617.41;;;1.86;85.85
74218;BME280;62579;47.288;18.646;2022-11-20T01:48:14;99613.72;;;2.01;85.54
74218;BME280;62579;47.288;18.646;2022-11-20T01:50:40;99618.50;;;2.06;85.43
74218;BME280;62579;47.288;18.646;2022-11-20T01:53:11;99616.88;;;2.09;85.52
74218;BME280;62579;47.288;18.646;2022-11-20T01:55:45;99617.75;;;2.06;85.63
74218;BME280;62579;47.288;18.646;2022-11-20T01:58:12;99622.28;;;2.18;85.58
74218;BME280;62579;47.288;18.646;2022-11-20T02:00:38;99623.47;;;2.17;85.50
74218;BME280;62579;47.288;18.646;2022-11-20T02:03:08;99625.69;;;2.18;85.56
74218;BME280;62579;47.288;18.646;2022-11-20T02:05:38;99620.66;;;2.20;85.58
74218;BME280;62579;47.288;18.646;2022-11-20T02:08:05;99614.41;;;2.41;84.50
74218;BME280;62579;47.288;18.646;2022-11-20T02:10:32;99615.28;;;2.29;84.98
74218;BME280;62579;47.288;18.646;2022-11-20T02:12:58;99628.22;;;2.13;86.13
74218;BME280;62579;47.288;18.646;2022-11-20T02:15:42;99619.91;;;2.20;86.12
74218;BME280;62579;47.288;18.646;2022-11-20T02:18:10;99611.69;;;2.14;86.79
74218;BME280;62579;47.288;18.646;2022-11-20T02:20:36;99593.22;;;2.25;86.24
74218;BME280;62579;47.288;18.646;2022-11-20T02:25:36;99594.09;;;2.31;85.84
74218;BME280;62579;47.288;18.646;2022-11-20T02:28:02;99606.47;;;2.29;85.89
74218;BME280;62579;47.288;18.646;2022-11-20T02:30:28;99601.41;;;2.22;85.67
74218;BME280;62579;47.288;18.646;2022-11-20T02:32:53;99593.97;;;2.26;86.35
74218;BME280;62579;47.288;18.646;2022-11-20T02:37:44;99607.22;;;2.20;86.94
74218;BME280;62579;47.288;18.646;2022-11-20T02:40:10;99607.94;;;2.21;86.85
74218;BME280;62579;47.288;18.646;2022-11-20T02:42:36;99620.50;;;2.24;86.51
74218;BME280;62579;47.288;18.646;2022-11-20T02:45:03;99614.38;;;2.23;86.12
74218;BME280;62579;47.288;18.646;2022-11-20T02:47:29;99611.13;;;2.28;86.74
74218;BME280;62579;47.288;18.646;2022-11-20T02:49:54;99601.09;;;2.29;85.90
74218;BME280;62579;47.288;18.646;2022-11-20T02:52:19;99597.53;;;2.32;85.04
74218;BME280;62579;47.288;18.646;2022-11-20T02:54:45;99599.72;;;2.15;86.19
74218;BME280;62579;47.288;18.646;2022-11-20T02:57:10;99589.00;;;2.15;86.46
74218;BME280;62579;47.288;18.646;2022-11-20T02:59:35;99593.97;;;2.26;86.48
74218;BME280;62579;47.288;18.646;2022-11-20T03:02:00;99597.06;;;2.24;85.50
74218;BME280;62579;47.288;18.646;2022-11-20T03:04:26;99584.69;;;2.27;85.41
74218;BME280;62579;47.288;18.646;2022-11-20T03:06:51;99582.31;;;2.38;85.11
74218;BME280;62579;47.288;18.646;2022-11-20T03:09:16;99585.59;;;2.33;85.37
74218;BME280;62579;47.288;18.646;2022-11-20T03:11:41;99592.31;;;2.28;85.77
74218;BME280;62579;47.288;18.646;2022-11-20T03:14:07;99585.31;;;2.31;85.43
74218;BME280;62579;47.288;18.646;2022-11-20T03:16:32;99583.22;;;2.35;86.05
74218;BME280;62579;47.288;18.646;2022-11-20T03:18:59;99574.87;;;2.33;87.08
74218;BME280;62579;47.288;18.646;2022-11-20T03:21:24;99594.25;;;2.37;86.50
74218;BME280;62579;47.288;18.646;2022-11-20T03:23:49;99600.38;;;2.37;87.13
74218;BME280;62579;47.288;18.646;2022-11-20T03:26:22;99606.66;;;2.43;87.11
74218;BME280;62579;47.288;18.646;2022-11-20T03:28:50;99597.41;;;2.45;86.76
74218;BME280;62579;47.288;18.646;2022-11-20T03:31:16;99608.59;;;2.43;86.63
74218;BME280;62579;47.288;18.646;2022-11-20T03:33:42;99613.81;;;2.37;86.12
74218;BME280;62579;47.288;18.646;2022-11-20T03:36:10;99609.94;;;2.38;86.04
74218;BME280;62579;47.288;18.646;2022-11-20T03:38:37;99608.28;;;2.41;85.75
74218;BME280;62579;47.288;18.646;2022-11-20T03:41:07;99605.00;;;2.46;85.98
74218;BME280;62579;47.288;18.646;2022-11-20T03:43:32;99601.28;;;2.43;86.65
74218;BME280;62579;47.288;18.646;2022-11-20T03:45:58;99592.78;;;2.45;87.25
74218;BME280;62579;47.288;18.646;2022-11-20T03:48:24;99588.00;;;2.49;87.92
74218;BME280;62579;47.288;18.646;2022-11-20T03:50:49;99588.59;;;2.44;88.15
74218;BME280;62579;47.288;18.646;2022-11-20T03:53:15;99589.19;;;2.48;87.74
74218;BME280;62579;47.288;18.646;2022-11-20T03:55:41;99581.44;;;2.41;86.55
74218;BME280;62579;47.288;18.646;2022-11-20T03:58:06;99583.97;;;2.35;86.48
74218;BME280;62579;47.288;18.646;2022-11-20T04:00:32;99564.41;;;2.53;86.35
74218;BME280;62579;47.288;18.646;2022-11-20T04:02:58;99550.53;;;2.64;86.11
74218;BME280;62579;47.288;18.646;2022-11-20T04:05:24;99548.59;;;2.64;86.14
74218;BME280;62579;47.288;18.646;2022-11-20T04:07:49;99550.56;;;2.55;86.54
74218;BME280;62579;47.288;18.646;2022-11-20T04:10:15;99551.13;;;2.59;86.55
74218;BME280;62579;47.288;18.646;2022-11-20T04:12:40;99552.66;;;2.41;87.49
74218;BME280;62579;47.288;18.646;2022-11-20T04:15:05;99552.06;;;2.28;88.03
74218;BME280;62579;47.288;18.646;2022-11-20T04:17:31;99551.44;;;2.24;88.55
74218;BME280;62579;47.288;18.646;2022-11-20T04:19:56;99548.47;;;2.22;88.96
74218;BME280;62579;47.288;18.646;2022-11-20T04:22:21;99545.03;;;2.31;88.84
74218;BME280;62579;47.288;18.646;2022-11-20T04:24:47;99534.28;;;2.49;88.01
74218;BME280;62579;47.288;18.646;2022-11-20T04:27:12;99541.59;;;2.49;87.84
74218;BME280;62579;47.288;18.646;2022-11-20T04:29:37;99540.12;;;2.38;88.40
74218;BME280;62579;47.288;18.646;2022-11-20T04:32:03;99549.06;;;2.45;88.21
74218;BME280;62579;47.288;18.646;2022-11-20T04:34:28;99546.50;;;2.32;88.79
74218;BME280;62579;47.288;18.646;2022-11-20T04:36:53;99541.16;;;2.32;88.45
74218;BME280;62579;47.288;18.646;2022-11-20T04:39:19;99532.78;;;2.48;88.08
74218;BME280;62579;47.288;18.646;2022-11-20T04:41:44;99537.13;;;2.27;88.87
74218;BME280;62579;47.288;18.646;2022-11-20T04:44:09;99560.09;;;2.28;89.10
74218;BME280;62579;47.288;18.646;2022-11-20T04:46:38;99564.25;;;2.29;88.95
74218;BME280;62579;47.288;18.646;2022-11-20T04:49:04;99546.81;;;2.25;89.05
74218;BME280;62579;47.288;18.646;2022-11-20T04:51:31;99542.47;;;2.18;89.60
74218;BME280;62579;47.288;18.646;2022-11-20T04:53:56;99541.59;;;2.21;89.27
74218;BME280;62579;47.288;18.646;2022-11-20T04:56:22;99543.53;;;2.21;89.45
74218;BME280;62579;47.288;18.646;2022-11-20T04:58:48;99535.47;;;2.30;89.33
74218;BME280;62579;47.288;18.646;2022-11-20T05:01:19;99526.84;;;2.35;89.06
74218;BME280;62579;47.288;18.646;2022-11-20T05:03:45;99536.37;;;2.36;88.62
74218;BME280;62579;47.288;18.646;2022-11-20T05:06:12;99544.16;;;2.34;88.87
74218;BME280;62579;47.288;18.646;2022-11-20T05:08:38;99541.59;;;2.30;89.11
74218;BME280;62579;47.288;18.646;2022-11-20T05:11:15;99541.59;;;2.30;89.12
74218;BME280;62579;47.288;18.646;2022-11-20T05:13:41;99537.72;;;2.31;88.86
74218;BME280;62579;47.288;18.646;2022-11-20T05:16:09;99540.25;;;2.35;89.08
74218;BME280;62579;47.288;18.646;2022-11-20T05:18:35;99544.28;;;2.30;89.62
74218;BME280;62579;47.288;18.646;2022-11-20T05:21:02;99543.53;;;2.30;88.73
74218;BME280;62579;47.288;18.646;2022-11-20T05:23:29;99546.97;;;2.30;88.57
74218;BME280;62579;47.288;18.646;2022-11-20T05:25:55;99534.72;;;2.29;88.62
74218;BME280;62579;47.288;18.646;2022-11-20T05:28:21;99538.19;;;2.39;88.65
74218;BME280;62579;47.288;18.646;2022-11-20T05:30:47;99540.53;;;2.37;87.47
74218;BME280;62579;47.288;18.646;2022-11-20T05:33:13;99527.59;;;2.45;86.65
74218;BME280;62579;47.288;18.646;2022-11-20T05:35:38;99522.22;;;2.35;86.90
74218;BME280;62579;47.288;18.646;2022-11-20T05:38:04;99528.75;;;2.34;87.03
74218;BME280;62579;47.288;18.646;2022-11-20T05:40:29;99531.16;;;2.32;87.52
74218;BME280;62579;47.288;18.646;2022-11-20T05:42:54;99529.97;;;2.24;87.53
74218;BME280;62579;47.288;18.646;2022-11-20T05:45:20;99513.72;;;2.10;88.18
74218;BME280;62579;47.288;18.646;2022-11-20T05:47:45;99540.09;;;2.11;88.39
74218;BME280;62579;47.288;18.646;2022-11-20T05:50:10;99544.56;;;2.23;87.81
74218;BME280;62579;47.288;18.646;2022-11-20T05:52:36;99527.25;;;2.15;87.92
74218;BME280;62579;47.288;18.646;2022-11-20T05:55:01;99531.16;;;2.14;88.17
74218;BME280;62579;47.288;18.646;2022-11-20T05:57:26;99529.22;;;2.24;88.06
74218;BME280;62579;47.288;18.646;2022-11-20T05:59:52;99526.06;;;2.16;88.14
74218;BME280;62579;47.288;18.646;2022-11-20T06:02:17;99527.87;;;2.19;88.57
74218;BME280;62579;47.288;18.646;2022-11-20T06:04:42;99524.44;;;2.19;88.98
74218;BME280;62579;47.288;18.646;2022-11-20T06:07:07;99526.81;;;2.17;88.61
74218;BME280;62579;47.288;18.646;2022-11-20T06:09:33;99519.06;;;2.10;88.77
74218;BME280;62579;47.288;18.646;2022-11-20T06:11:58;99523.22;;;2.11;89.38
74218;BME280;62579;47.288;18.646;2022-11-20T06:14:24;99532.94;;;2.08;89.57
74218;BME280;62579;47.288;18.646;2022-11-20T06:16:49;99535.00;;;2.13;89.11
74218;BME280;62579;47.288;18.646;2022-11-20T06:19:14;99549.47;;;2.16;89.10
74218;BME280;62579;47.288;18.646;2022-11-20T06:21:40;99550.66;;;2.06;89.64
74218;BME280;62579;47.288;18.646;2022-11-20T06:24:06;99552.75;;;2.11;89.72
74218;BME280;62579;47.288;18.646;2022-11-20T06:26:31;99560.81;;;2.11;89.79
74218;BME280;62579;47.288;18.646;2022-11-20T06:28:57;99565.28;;;2.14;89.77
74218;BME280;62579;47.288;18.646;2022-11-20T06:31:24;99572.75;;;2.10;89.78
74218;BME280;62579;47.288;18.646;2022-11-20T06:33:50;99567.97;;;2.14;89.94
74218;BME280;62579;47.288;18.646;2022-11-20T06:36:18;99578.59;;;2.17;89.97
74218;BME280;62579;47.288;18.646;2022-11-20T06:38:44;99581.09;;;2.21;89.75
74218;BME280;62579;47.288;18.646;2022-11-20T06:41:12;99590.66;;;2.22;89.83
74218;BME280;62579;47.288;18.646;2022-11-20T06:43:38;99593.22;;;2.25;89.80
74218;BME280;62579;47.288;18.646;2022-11-20T06:46:04;99586.19;;;2.28;89.86
74218;BME280;62579;47.288;18.646;2022-11-20T06:48:29;99579.75;;;2.16;90.11
74218;BME280;62579;47.288;18.646;2022-11-20T06:50:56;99588.28;;;2.15;90.49
74218;BME280;62579;47.288;18.646;2022-11-20T06:53:22;99587.25;;;2.30;89.78
74218;BME280;62579;47.288;18.646;2022-11-20T06:55:49;99587.97;;;2.22;90.17
74218;BME280;62579;47.288;18.646;2022-11-20T06:58:15;99598.56;;;2.34;89.73
74218;BME280;62579;47.288;18.646;2022-11-20T07:00:41;99599.94;;;2.39;89.67
74218;BME280;62579;47.288;18.646;2022-11-20T07:03:08;99603.22;;;2.34;90.16
74218;BME280;62579;47.288;18.646;2022-11-20T07:05:35;99595.00;;;2.37;90.25
74218;BME280;62579;47.288;18.646;2022-11-20T07:08:00;99595.31;;;2.49;89.39
74218;BME280;62579;47.288;18.646;2022-11-20T07:10:26;99602.47;;;2.33;89.65
74218;BME280;62579;47.288;18.646;2022-11-20T07:12:52;99603.06;;;2.37;89.39
74218;BME280;62579;47.288;18.646;2022-11-20T07:15:19;99591.44;;;2.40;89.35
74218;BME280;62579;47.288;18.646;2022-11-20T07:17:45;99588.16;;;2.36;90.51
74218;BME280;62579;47.288;18.646;2022-11-20T07:20:11;99589.94;;;2.39;90.60
74218;BME280;62579;47.288;18.646;2022-11-20T07:22:37;99587.69;;;2.38;90.95
74218;BME280;62579;47.288;18.646;2022-11-20T07:25:02;99588.59;;;2.44;91.28
74218;BME280;62579;47.288;18.646;2022-11-20T07:27:29;99586.81;;;2.41;91.07
74218;BME280;62579;47.288;18.646;2022-11-20T07:29:54;99585.31;;;2.40;91.54
74218;BME280;62579;47.288;18.646;2022-11-20T07:32:20;99584.72;;;2.45;91.35
74218;BME280;62579;47.288;18.646;2022-11-20T07:34:45;99582.94;;;2.51;91.89
74218;BME280;62579;47.288;18.646;2022-11-20T07:37:11;99587.09;;;2.43;92.24
74218;BME280;62579;47.288;18.646;2022-11-20T07:39:36;99591.59;;;2.55;91.52
74218;BME280;62579;47.288;18.646;2022-11-20T07:42:02;99595.78;;;2.47;92.50
74218;BME280;62579;47.288;18.646;2022-11-20T07:44:27;99591.59;;;2.55;92.39
74218;BME280;62579;47.288;18.646;2022-11-20T07:46:52;99589.22;;;2.66;92.16
74218;BME280;62579;47.288;18.646;2022-11-20T07:49:18;99578.91;;;2.65;91.74
74218;BME280;62579;47.288;18.646;2022-11-20T07:51:43;99581.59;;;2.65;93.36
74218;BME280;62579;47.288;18.646;2022-11-20T07:54:08;99575.00;;;2.75;92.20
74218;BME280;62579;47.288;18.646;2022-11-20T07:56:34;99576.81;;;2.78;92.11
74218;BME280;62579;47.288;18.646;2022-11-20T07:58:59;99570.06;;;2.91;91.65
74218;BME280;62579;47.288;18.646;2022-11-20T08:01:24;99565.41;;;3.10;90.95
74218;BME280;62579;47.288;18.646;2022-11-20T08:03:49;99563.47;;;3.11;91.36
74218;BME280;62579;47.288;18.646;2022-11-20T08:06:15;99574.66;;;3.18;91.00
74218;BME280;62579;47.288;18.646;2022-11-20T08:08:40;99572.56;;;3.22;90.93
74218;BME280;62579;47.288;18.646;2022-11-20T08:11:06;99569.25;;;3.27;90.64
74218;BME280;62579;47.288;18.646;2022-11-20T08:13:50;99569.69;;;3.35;90.90
74218;BME280;62579;47.288;18.646;2022-11-20T08:16:34;99578.16;;;3.42;90.90
74218;BME280;62579;47.288;18.646;2022-11-20T08:18:59;99569.19;;;3.45;90.72
74218;BME280;62579;47.288;18.646;2022-11-20T08:21:25;99570.38;;;3.44;90.88
74218;BME280;62579;47.288;18.646;2022-11-20T08:23:50;99568.84;;;3.61;89.47
74218;BME280;62579;47.288;18.646;2022-11-20T08:26:15;99579.97;;;3.45;90.68
74218;BME280;62579;47.288;18.646;2022-11-20T08:28:41;99590.69;;;3.54;91.18
74218;BME280;62579;47.288;18.646;2022-11-20T08:31:06;99591.47;;;3.46;90.87
74218;BME280;62579;47.288;18.646;2022-11-20T08:33:31;99600.28;;;3.46;91.53
74218;BME280;62579;47.288;18.646;2022-11-20T08:36:02;99600.09;;;3.50;90.70
74218;BME280;62579;47.288;18.646;2022-11-20T08:38:28;99609.94;;;3.62;90.69
74218;BME280;62579;47.288;18.646;2022-11-20T08:40:57;99613.66;;;3.64;89.45
74218;BME280;62579;47.288;18.646;2022-11-20T08:43:41;99619.37;;;3.57;89.84
74218;BME280;62579;47.288;18.646;2022-11-20T08:46:06;99612.91;;;3.64;89.51
74218;BME280;62579;47.288;18.646;2022-11-20T08:48:31;99621.59;;;3.68;88.87
74218;BME280;62579;47.288;18.646;2022-11-20T08:50:58;99616.38;;;3.64;88.25
74218;BME280;62579;47.288;18.646;2022-11-20T08:53:24;99614.56;;;3.61;89.34
74218;BME280;62579;47.288;18.646;2022-11-20T08:55:49;99612.16;;;3.63;89.63
74218;BME280;62579;47.288;18.646;2022-11-20T08:58:14;99615.91;;;3.66;89.85
74218;BME280;62579;47.288;18.646;2022-11-20T09:00:40;99621.28;;;3.66;90.85
74218;BME280;62579;47.288;18.646;2022-11-20T09:03:05;99620.63;;;3.80;89.68
74218;BME280;62579;47.288;18.646;2022-11-20T09:05:30;99622.91;;;3.73;89.38
74218;BME280;62579;47.288;18.646;2022-11-20T09:07:56;99633.69;;;3.73;89.33
74218;BME280;62579;47.288;18.646;2022-11-20T09:10:22;99631.56;;;3.77;89.94
74218;BME280;62579;47.288;18.646;2022-11-20T09:12:50;99624.97;;;3.78;90.34
74218;BME280;62579;47.288;18.646;2022-11-20T09:15:17;99625.72;;;3.78;90.50
74218;BME280;62579;47.288;18.646;2022-11-20T09:17:42;99630.03;;;3.85;89.90
74218;BME280;62579;47.288;18.646;2022-11-20T09:20:08;99627.81;;;3.83;90.70
74218;BME280;62579;47.288;18.646;2022-11-20T09:22:33;99626.44;;;3.88;89.93
74218;BME280;62579;47.288;18.646;2022-11-20T09:24:58;99633.44;;;3.94;90.48
74218;BME280;62579;47.288;18.646;2022-11-20T09:27:23;99623.41;;;3.95;90.55
74218;BME280;62579;47.288;18.646;2022-11-20T09:29:49;99623.72;;;3.97;90.59
74218;BME280;62579;47.288;18.646;2022-11-20T09:32:14;99616.81;;;3.96;90.33
74218;BME280;62579;47.288;18.646;2022-11-20T09:34:40;99620.84;;;4.00;90.22
74218;BME280;62579;47.288;18.646;2022-11-20T09:37:05;99629.06;;;4.06;89.57
74218;BME280;62579;47.288;18.646;2022-11-20T09:39:30;99636.19;;;4.09;89.51
74218;BME280;62579;47.288;18.646;2022-11-20T09:42:04;99634.72;;;4.08;89.91
74218;BME280;62579;47.288;18.646;2022-11-20T09:44:52;99632.19;;;4.04;89.78
74218;BME280;62579;47.288;18.646;2022-11-20T09:55:35;99629.06;;;4.06;90.50
74218;BME280;62579;47.288;18.646;2022-11-20T09:58:02;99630.09;;;4.08;89.99
74218;BME280;62579;47.288;18.646;2022-11-20T10:00:30;99616.44;;;4.12;90.36
74218;BME280;62579;47.288;18.646;2022-11-20T10:03:16;99607.00;;;4.16;90.55
74218;BME280;62579;47.288;18.646;2022-11-20T10:05:53;99598.41;;;4.27;90.62
74218;BME280;62579;47.288;18.646;2022-11-20T10:10:52;99586.12;;;4.26;89.28
74218;BME280;62579;47.288;18.646;2022-11-20T10:13:31;99599.44;;;4.30;89.33
74218;BME280;62579;47.288;18.646;2022-11-20T10:16:23;99581.44;;;4.36;89.89
74218;BME280;62579;47.288;18.646;2022-11-20T10:22:10;99581.47;;;4.50;89.15
74218;BME280;62579;47.288;18.646;2022-11-20T10:24:43;99576.19;;;4.56;88.97
74218;BME280;62579;47.288;18.646;2022-11-20T10:27:23;99571.38;;;4.60;89.18
74218;BME280;62579;47.288;18.646;2022-11-20T10:30:08;99574.47;;;4.67;89.37
74218;BME280;62579;47.288;18.646;2022-11-20T10:32:42;99573.81;;;4.72;89.63
74218;BME280;62579;47.288;18.646;2022-11-20T10:35:25;99564.81;;;4.75;89.16
74218;BME280;62579;47.288;18.646;2022-11-20T10:37:58;99560.75;;;4.95;88.94
74218;BME280;62579;47.288;18.646;2022-11-20T10:43:00;99553.94;;;4.99;87.84
74218;BME280;62579;47.288;18.646;2022-11-20T10:50:24;99556.75;;;5.05;88.82
74218;BME280;62579;47.288;18.646;2022-11-20T10:53:07;99564.56;;;5.03;88.70
74218;BME280;62579;47.288;18.646;2022-11-20T10:55:45;99567.63;;;5.10;88.38
74218;BME280;62579;47.288;18.646;2022-11-20T11:00:46;99588.16;;;5.22;88.67
74218;BME280;62579;47.288;18.646;2022-11-20T11:03:25;99590.22;;;5.27;87.70
74218;BME280;62579;47.288;18.646;2022-11-20T11:06:02;99589.00;;;5.28;88.06
74218;BME280;62579;47.288;18.646;2022-11-20T11:08:34;99589.66;;;5.38;88.87
74218;BME280;62579;47.288;18.646;2022-11-20T11:11:07;99591.88;;;5.54;88.04
74218;BME280;62579;47.288;18.646;2022-11-20T11:13:35;99589.47;;;5.56;88.33
74218;BME280;62579;47.288;18.646;2022-11-20T11:16:00;99595.41;;;5.60;89.07
74218;BME280;62579;47.288;18.646;2022-11-20T11:18:27;99594.00;;;5.65;88.43
74218;BME280;62579;47.288;18.646;2022-11-20T11:20:54;99590.66;;;5.70;88.37
74218;BME280;62579;47.288;18.646;2022-11-20T11:26:00;99589.50;;;5.76;89.21
74218;BME280;62579;47.288;18.646;2022-11-20T11:28:26;99585.97;;;5.85;87.95
74218;BME280;62579;47.288;18.646;2022-11-20T11:30:53;99581.50;;;5.96;87.97
74218;BME280;62579;47.288;18.646;2022-11-20T11:33:21;99571.22;;;6.00;88.11
74218;BME280;62579;47.288;18.646;2022-11-20T11:35:52;99577.19;;;6.04;87.54
74218;BME280;62579;47.288;18.646;2022-11-20T11:38:27;99559.00;;;6.05;86.89
74218;BME280;62579;47.288;18.646;2022-11-20T11:40:54;99567.50;;;5.98;86.28
74218;BME280;62579;47.288;18.646;2022-11-20T11:43:23;99569.00;;;5.99;86.17
74218;BME280;62579;47.288;18.646;2022-11-20T11:51:50;99568.06;;;6.02;86.46
74218;BME280;62579;47.288;18.646;2022-11-20T11:54:30;99561.84;;;5.96;85.63
74218;BME280;62579;47.288;18.646;2022-11-20T11:57:00;99558.19;;;5.99;85.68
74218;BME280;62579;47.288;18.646;2022-11-20T11:59:47;99554.19;;;5.94;87.16
74218;BME280;62579;47.288;18.646;2022-11-20T12:11:00;99551.50;;;6.15;85.65
74218;BME280;62579;47.288;18.646;2022-11-20T12:16:23;99552.53;;;6.17;84.70
74218;BME280;62579;47.288;18.646;2022-11-20T12:18:50;99546.53;;;6.08;86.19
74218;BME280;62579;47.288;18.646;2022-11-20T12:21:31;99541.97;;;5.99;86.66
74218;BME280;62579;47.288;18.646;2022-11-20T12:32:44;99530.41;;;6.19;83.89
74218;BME280;62579;47.288;18.646;2022-11-20T12:35:29;99525.84;;;6.25;84.14
74218;BME280;62579;47.288;18.646;2022-11-20T12:38:42;99542.78;;;6.25;84.04
74218;BME280;62579;47.288;18.646;2022-11-20T12:44:33;99559.87;;;5.96;83.99
74218;BME280;62579;47.288;18.646;2022-11-20T12:55:16;99555.50;;;5.84;85.50
74218;BME280;62579;47.288;18.646;2022-11-20T12:57:54;99550.94;;;5.90;85.18
74218;BME280;62579;47.288;18.646;2022-11-20T13:00:21;99538.19;;;5.91;84.82
74218;BME280;62579;47.288;18.646;2022-11-20T19:22:30;99576.66;;;2.18;88.61
74218;BME280;62579;47.288;18.646;2022-11-20T19:24:55;99585.69;;;2.02;90.04
74218;BME280;62579;47.288;18.646;2022-11-20T19:27:20;99581.19;;;1.90;90.84
74218;BME280;62579;47.288;18.646;2022-11-20T19:29:46;99572.38;;;1.80;91.72
74218;BME280;62579;47.288;18.646;2022-11-20T19:32:11;99565.38;;;1.83;91.14
74218;BME280;62579;47.288;18.646;2022-11-20T19:34:36;99564.78;;;1.79;90.72
74218;BME280;62579;47.288;18.646;2022-11-20T19:37:02;99564.94;;;1.85;90.32
74218;BME280;62579;47.288;18.646;2022-11-20T19:39:27;99561.91;;;1.73;89.79
74218;BME280;62579;47.288;18.646;2022-11-20T19:41:52;99551.72;;;1.59;89.30
74218;BME280;62579;47.288;18.646;2022-11-20T19:44:18;99546.22;;;1.23;91.25
74218;BME280;62579;47.288;18.646;2022-11-20T19:46:43;99540.41;;;1.25;91.79
74218;BME280;62579;47.288;18.646;2022-11-20T19:49:11;99535.22;;;1.21;92.14
74218;BME280;62579;47.288;18.646;2022-11-20T19:51:38;99538.75;;;1.18;92.02
74218;BME280;62579;47.288;18.646;2022-11-20T19:54:05;99553.44;;;1.04;92.66
74218;BME280;62579;47.288;18.646;2022-11-20T19:56:32;99545.78;;;0.94;93.18
74218;BME280;62579;47.288;18.646;2022-11-20T19:58:57;99547.12;;;0.98;92.97
74218;BME280;62579;47.288;18.646;2022-11-20T20:01:25;99553.53;;;1.01;92.83
74218;BME280;62579;47.288;18.646;2022-11-20T20:03:51;99534.03;;;1.00;92.88
74218;BME280;62579;47.288;18.646;2022-11-20T20:06:22;99529.44;;;1.01;93.16
74218;BME280;62579;47.288;18.646;2022-11-20T20:08:55;99530.06;;;1.05;92.80
74218;BME280;62579;47.288;18.646;2022-11-20T20:11:22;99509.53;;;1.11;92.40
74218;BME280;62579;47.288;18.646;2022-11-20T20:13:47;99501.66;;;1.07;91.90
74218;BME280;62579;47.288;18.646;2022-11-20T20:16:16;99508.31;;;1.03;91.68
74218;BME280;62579;47.288;18.646;2022-11-20T20:18:42;99507.75;;;0.86;92.81
74218;BME280;62579;47.288;18.646;2022-11-20T20:21:12;99500.75;;;0.80;93.51
74218;BME280;62579;47.288;18.646;2022-11-20T20:23:38;99497.50;;;0.85;93.73
74218;BME280;62579;47.288;18.646;2022-11-20T20:26:05;99494.25;;;0.90;93.64
74218;BME280;62579;47.288;18.646;2022-11-20T20:28:31;99498.84;;;0.89;93.65
74218;BME280;62579;47.288;18.646;2022-11-20T20:30:57;99495.28;;;0.83;93.68
74218;BME280;62579;47.288;18.646;2022-11-20T20:33:22;99488.84;;;0.81;93.98
74218;BME280;62579;47.288;18.646;2022-11-20T20:35:48;99500.34;;;0.90;93.92
74218;BME280;62579;47.288;18.646;2022-11-20T20:38:14;99481.16;;;0.92;94.04
74218;BME280;62579;47.288;18.646;2022-11-20T20:40:46;99483.41;;;0.93;94.51
74218;BME280;62579;47.288;18.646;2022-11-20T20:43:12;99474.81;;;0.98;94.83
74218;BME280;62579;47.288;18.646;2022-11-20T20:45:44;99466.47;;;1.05;95.18
74218;BME280;62579;47.288;18.646;2022-11-20T20:48:10;99480.06;;;1.11;95.08
74218;BME280;62579;47.288;18.646;2022-11-20T20:50:35;99482.91;;;1.16;95.05
74218;BME280;62579;47.288;18.646;2022-11-20T20:53:00;99480.22;;;1.16;95.29
74218;BME280;62579;47.288;18.646;2022-11-20T20:55:26;99479.97;;;1.24;95.46
74218;BME280;62579;47.288;18.646;2022-11-20T20:57:51;99477.59;;;1.26;95.71
74218;BME280;62579;47.288;18.646;2022-11-20T21:00:17;99485.19;;;1.27;95.35
74218;BME280;62579;47.288;18.646;2022-11-20T21:02:43;99473.59;;;1.30;95.12
74218;BME280;62579;47.288;18.646;2022-11-20T21:05:08;99482.97;;;1.26;95.51
74218;BME280;62579;47.288;18.646;2022-11-20T21:07:34;99484.28;;;1.21;96.02
74218;BME280;62579;47.288;18.646;2022-11-20T21:10:19;99485.34;;;1.24;96.08
74218;BME280;62579;47.288;18.646;2022-11-20T21:12:44;99483.72;;;1.26;96.35
74218;BME280;62579;47.288;18.646;2022-11-20T21:15:10;99487.44;;;1.29;96.11
74218;BME280;62579;47.288;18.646;2022-11-20T21:17:35;99485.19;;;1.27;96.16